Hoegh Transporter — LAKO7 — position and weather

sailwx.info

Track history (hours):
 
Tides and Currents Weather Stations Pressure Air Temp Water Temp Dewpoint Dewpoint Depression Visibility Wind Speed Wind Dir Waves Ship Positions

Hoegh Transporter

Last reported at 2015-Mar-15 14:10 UTC. Time now 2015-Mar-27 22:12 UTC.
Position S 28°23' E 032°42'.
Warning: this ship's position is 12 days out of date.

Length 199 m; draft 8.7 m.

Type: Cargo ship. MMSI: 257712000.

Date/timePositionNaut miles runAvg speedWind from/ knotsBaromVisibWave heightAir tempDewpointWater temp
2015-Mar-15 14:10S 28°23' E 032°42'1216.3
2015-Mar-15 13:27S 28°34' E 032°39'1415.9
2015-Mar-15 12:33S 28°48' E 032°35'1514.9
2015-Mar-15 11:33S 28°58' E 032°23'1514.7
2015-Mar-15 10:33S 29°07' E 032°10'1514.7
2015-Mar-15 09:33S 29°16' E 031°56'1716.7
2015-Mar-15 08:33S 29°26' E 031°41'1716.6
2015-Mar-15 07:33S 29°36' E 031°25'1616.5
2015-Mar-15 06:33S 29°49' E 031°14'1111.3
2015-Mar-15 05:34S 29°52' E 031°02'0 0.2
2015-Mar-15 04:33S 29°52' E 031°02'0 0.0
2015-Mar-15 03:33S 29°52' E 031°02'0 0.0
2015-Mar-15 02:33S 29°52' E 031°02'0 0.0
2015-Mar-15 01:33S 29°52' E 031°02'0 0.0
2015-Mar-15 00:33S 29°52' E 031°02'0 0.0
2015-Mar-14 23:33S 29°52' E 031°02'0 0.0
2015-Mar-14 22:33S 29°52' E 031°02'0 0.0
2015-Mar-14 21:33S 29°52' E 031°02'0 0.0
2015-Mar-14 20:15S 29°52' E 031°02'0 0.0
2015-Mar-14 19:33S 29°52' E 031°02'0 0.0
2015-Mar-14 18:33S 29°52' E 031°02'0 0.0
2015-Mar-14 17:33S 29°52' E 031°02'0 0.0
2015-Mar-14 16:27S 29°52' E 031°02'0 0.0
2015-Mar-14 15:33S 29°52' E 031°02'0 0.0
2015-Mar-14 14:33S 29°52' E 031°02'0 0.0
2015-Mar-14 13:27S 29°52' E 031°02'0 0.0
2015-Mar-14 12:33S 29°52' E 031°02'0 0.0
2015-Mar-14 11:33S 29°52' E 031°02'0 0.0
2015-Mar-14 10:33S 29°52' E 031°02'0 0.0
2015-Mar-14 09:33S 29°52' E 031°02'0 0.0
2015-Mar-14 08:30S 29°52' E 031°02'0 0.0
2015-Mar-14 07:24S 29°52' E 031°02'0 0.0
2015-Mar-14 06:30S 29°52' E 031°02'0 0.0
2015-Mar-14 05:30S 29°52' E 031°02'0 0.0
2015-Mar-14 04:30S 29°52' E 031°02'0 0.0
2015-Mar-14 03:30S 29°52' E 031°02'0 0.0
2015-Mar-14 02:30S 29°52' E 031°02'0 0.0
2015-Mar-14 01:30S 29°52' E 031°02'0 0.0
2015-Mar-14 00:30S 29°52' E 031°02'0 0.0
2015-Mar-13 23:30S 29°52' E 031°02'0 0.0
2015-Mar-13 22:30S 29°52' E 031°02'0 0.0
2015-Mar-13 21:30S 29°52' E 031°02'0 0.0
2015-Mar-13 20:24S 29°52' E 031°02'0 0.0
2015-Mar-13 19:30S 29°52' E 031°02'0 0.0
2015-Mar-13 18:30S 29°52' E 031°02'0 0.0
2015-Mar-13 17:30S 29°52' E 031°02'0 0.0
2015-Mar-13 16:30S 29°52' E 031°02'0 0.0
2015-Mar-13 15:30S 29°52' E 031°02'0 0.0
2015-Mar-13 14:33S 29°52' E 031°02'5 5.1
2015-Mar-13 13:34S 29°50' E 031°07'8 7.9
2015-Mar-13 12:33S 29°53' E 031°15'2 2.3
2015-Mar-13 11:33S 29°52' E 031°13'1 1.1
2015-Mar-13 10:33S 29°53' E 031°14'2 2.0
2015-Mar-13 09:33S 29°51' E 031°13'3 3.5
2015-Mar-13 08:33S 29°50' E 031°09'6 6.3
2015-Mar-13 07:33S 29°47' E 031°16'1717.4
2015-Mar-13 06:33S 29°42' E 031°35'1818.0
2015-Mar-13 05:33S 29°37' E 031°54'1817.8
2015-Mar-13 04:33S 29°31' E 032°14'  
Track history (hours):
 
Tides and Currents Weather Stations Pressure Air Temp Water Temp Dewpoint Dewpoint Depression Visibility Wind Speed Wind Dir Waves Ship Positions

Hoegh Transporter

Last reported at 2015-Mar-15 14:10 UTC. Time now 2015-Mar-27 22:12 UTC.
Position S 28°23' E 032°42'.
Warning: this ship's position is 12 days out of date.

Length 199 m; draft 8.7 m.

Type: Cargo ship. MMSI: 257712000.

Date/timePositionNaut miles runAvg speedWind from/ knotsBaromVisibWave heightAir tempDewpointWater temp
2015-Mar-15 14:10S 28°23' E 032°42'1216.3
2015-Mar-15 13:27S 28°34' E 032°39'1415.9
2015-Mar-15 12:33S 28°48' E 032°35'1514.9
2015-Mar-15 11:33S 28°58' E 032°23'1514.7
2015-Mar-15 10:33S 29°07' E 032°10'1514.7
2015-Mar-15 09:33S 29°16' E 031°56'1716.7
2015-Mar-15 08:33S 29°26' E 031°41'1716.6
2015-Mar-15 07:33S 29°36' E 031°25'1616.5
2015-Mar-15 06:33S 29°49' E 031°14'1111.3
2015-Mar-15 05:34S 29°52' E 031°02'0 0.2
2015-Mar-15 04:33S 29°52' E 031°02'0 0.0
2015-Mar-15 03:33S 29°52' E 031°02'0 0.0
2015-Mar-15 02:33S 29°52' E 031°02'0 0.0
2015-Mar-15 01:33S 29°52' E 031°02'0 0.0
2015-Mar-15 00:33S 29°52' E 031°02'0 0.0
2015-Mar-14 23:33S 29°52' E 031°02'0 0.0
2015-Mar-14 22:33S 29°52' E 031°02'0 0.0
2015-Mar-14 21:33S 29°52' E 031°02'0 0.0
2015-Mar-14 20:15S 29°52' E 031°02'0 0.0
2015-Mar-14 19:33S 29°52' E 031°02'0 0.0
2015-Mar-14 18:33S 29°52' E 031°02'0 0.0
2015-Mar-14 17:33S 29°52' E 031°02'0 0.0
2015-Mar-14 16:27S 29°52' E 031°02'0 0.0
2015-Mar-14 15:33S 29°52' E 031°02'0 0.0
2015-Mar-14 14:33S 29°52' E 031°02'0 0.0
2015-Mar-14 13:27S 29°52' E 031°02'0 0.0
2015-Mar-14 12:33S 29°52' E 031°02'0 0.0
2015-Mar-14 11:33S 29°52' E 031°02'0 0.0
2015-Mar-14 10:33S 29°52' E 031°02'0 0.0
2015-Mar-14 09:33S 29°52' E 031°02'0 0.0
2015-Mar-14 08:30S 29°52' E 031°02'0 0.0
2015-Mar-14 07:24S 29°52' E 031°02'0 0.0
2015-Mar-14 06:30S 29°52' E 031°02'0 0.0
2015-Mar-14 05:30S 29°52' E 031°02'0 0.0
2015-Mar-14 04:30S 29°52' E 031°02'0 0.0
2015-Mar-14 03:30S 29°52' E 031°02'0 0.0
2015-Mar-14 02:30S 29°52' E 031°02'0 0.0
2015-Mar-14 01:30S 29°52' E 031°02'0 0.0
2015-Mar-14 00:30S 29°52' E 031°02'0 0.0
2015-Mar-13 23:30S 29°52' E 031°02'0 0.0
2015-Mar-13 22:30S 29°52' E 031°02'0 0.0
2015-Mar-13 21:30S 29°52' E 031°02'0 0.0
2015-Mar-13 20:24S 29°52' E 031°02'0 0.0
2015-Mar-13 19:30S 29°52' E 031°02'0 0.0
2015-Mar-13 18:30S 29°52' E 031°02'0 0.0
2015-Mar-13 17:30S 29°52' E 031°02'0 0.0
2015-Mar-13 16:30S 29°52' E 031°02'0 0.0
2015-Mar-13 15:30S 29°52' E 031°02'0 0.0
2015-Mar-13 14:33S 29°52' E 031°02'5 5.1
2015-Mar-13 13:34S 29°50' E 031°07'8 7.9
2015-Mar-13 12:33S 29°53' E 031°15'2 2.3
2015-Mar-13 11:33S 29°52' E 031°13'1 1.1
2015-Mar-13 10:33S 29°53' E 031°14'2 2.0
2015-Mar-13 09:33S 29°51' E 031°13'3 3.5
2015-Mar-13 08:33S 29°50' E 031°09'6 6.3
2015-Mar-13 07:33S 29°47' E 031°16'1717.4
2015-Mar-13 06:33S 29°42' E 031°35'1818.0
2015-Mar-13 05:33S 29°37' E 031°54'1817.8
2015-Mar-13 04:33S 29°31' E 032°14'  

Dump ship's entire track history